Flight Track Log - Related Links

Times and Time Zones

All times are in EDT time to prevent confusion due to time zone crossing. See the N7670B flight status page for this flight to view local times or setup timezone preferences in your user account.

Time Position Orientation Groundspeed Altitude Reporting Facility
EDT Latitude Longitude Course Direction KTS MPH feet Rate Location/Type
Wed 04:03:02 PM 40.7560 -111.9610 192° South 177 204 5,600  Level FlightAware ADS-B
Wed 04:03:14 PM 40.7468 -111.9690 213° Southwest 183 211 6,300 3,176 Climbing FlightAware ADS-B
Wed 04:03:36 PM 40.7424 -111.9920 256° West 183 211 7,400 2,170 Climbing FlightAware ADS-B
Wed 04:04:01 PM 40.7446 -112.0250 275° West 237 273 8,000 1,610 Climbing FlightAware ADS-B
Wed 04:04:17 PM 40.7477 -112.0520 279° West 268 308 8,500 2,087 Climbing FlightAware ADS-B
Wed 04:04:24 PM 40.7498 -112.0620 285° West 273 314 8,800 2,571 Climbing FlightAware ADS-B
Wed 04:04:38 PM 40.7560 -112.0840 290° West 284 327 9,400 2,933 Climbing FlightAware ADS-B
Wed 04:05:09 PM 40.7726 -112.1330 294° West 283 326 11,000 2,857 Climbing FlightAware ADS-B
Wed 04:05:41 PM 40.7899 -112.1860 293° West 312 359 12,400 2,323 Climbing FlightAware ADS-B
Wed 04:06:11 PM 40.8086 -112.2420 294° West 344 396 13,400 2,049 Climbing FlightAware ADS-B
Wed 04:06:22 PM 40.8164 -112.2640 295° West 356 410 13,800 2,000 Climbing FlightAware ADS-B
Wed 04:06:29 PM 40.8221 -112.2760 302° West 362 417 14,000 1,800 Climbing FlightAware ADS-B
Wed 04:06:32 PM 40.8260 -112.2820 311° West 367 422 14,100 1,500 Climbing FlightAware ADS-B
Wed 04:06:37 PM 40.8318 -112.2890 318° Northwest 372 428 14,200 1,800 Climbing FlightAware ADS-B
Wed 04:06:42 PM 40.8384 -112.2960 321° Northwest 375 432 14,400 2,000 Climbing FlightAware ADS-B
Wed 04:06:49 PM 40.8488 -112.3050 327° Northwest 381 438 14,600 2,211 Climbing FlightAware ADS-B
Wed 04:07:20 PM 40.8975 -112.3410 331° Northwest 393 452 15,800 2,806 Climbing FlightAware ADS-B
Wed 04:07:51 PM 40.9465 -112.3760 332° Northwest 389 448 17,500 3,387 Climbing FlightAware ADS-B
Wed 04:08:22 PM 40.9954 -112.4120 331° Northwest 385 443 19,300 2,667 Climbing FlightAware ADS-B
Wed 04:08:54 PM 41.0457 -112.4480 332° Northwest 402 463 20,300 1,935 Climbing FlightAware ADS-B
Wed 04:09:24 PM 41.0968 -112.4860 331° Northwest 416 479 21,300 2,060 Climbing FlightAware ADS-B
Wed 04:10:01 PM 41.1595 -112.5320 331° Northwest 421 484 22,600 2,029 Climbing FlightAware ADS-B
Wed 04:10:32 PM 41.2125 -112.5710 331° Northwest 432 497 23,600 1,944 Climbing FlightAware ADS-B
Wed 04:11:12 PM 41.2804 -112.6280 328° Northwest 432 497 24,900 2,045 Climbing FlightAware ADS-B
Wed 04:11:16 PM 41.2867 -112.6350 320° Northwest 432 497 25,100 2,000 Climbing FlightAware ADS-B
Wed 04:11:48 PM 41.3300 -112.6960 313° West 432 497 26,100 1,875 Climbing FlightAware ADS-B
Wed 04:12:20 PM 41.3730 -112.7590 312° West 436 502 27,100 1,726 Climbing FlightAware ADS-B
Wed 04:13:01 PM 41.4280 -112.8410 312° West 445 512 28,200 1,500 Climbing FlightAware ADS-B
Wed 04:13:44 PM 41.4870 -112.9310 311° West 453 521 29,200 1,412 Climbing FlightAware ADS-B
Wed 04:14:26 PM 41.5460 -113.0210 311° West 459 528 30,200 1,412 Climbing FlightAware ADS-B
Wed 04:14:52 PM 41.5800 -113.0740 311° West 460 529 30,800 495 Climbing FlightAware ADS-B
Wed 04:16:03 PM 41.6650 -113.2080 310° West 460 529 31,000 1,831 Climbing FlightAware ADS-B
Wed 04:16:50 PM 41.7440 -113.3250 312° West 439 505 34,400 3,303 Climbing FlightAware ADS-B
Wed 04:17:32 PM 41.7990 -113.4110 311° West 428 493 35,900 1,800 Climbing FlightAware ADS-B
Wed 04:18:10 PM 41.8480 -113.4870 311° West 427 491 36,800 1,462 Climbing FlightAware ADS-B
Wed 04:18:50 PM 41.8990 -113.5670 311° West 425 489 37,800 1,463 Climbing FlightAware ADS-B
Wed 04:19:32 PM 41.9510 -113.6490 310° West 423 487 38,800 848 Climbing FlightAware ADS-B
Wed 04:20:22 PM 42.0100 -113.7410 311° West 427 491 39,100 968 Climbing FlightAware ADS-B
Wed 04:21:05 PM 42.0730 -113.8400 311° West 432 497 40,300 1,373 Climbing FlightAware ADS-B
Wed 04:21:45 PM 42.1230 -113.9200 310° West 431 496 41,000 975 Climbing FlightAware ADS-B
Wed 04:22:25 PM 42.1750 -114.0030 310° West 431 496 41,600 878 Climbing FlightAware ADS-B
Wed 04:23:07 PM 42.2290 -114.0880 311° West 432 497 42,200 714 Climbing FlightAware ADS-B
Wed 04:23:49 PM 42.2840 -114.1760 310° West 437 503 42,600 488 Climbing FlightAware ADS-B
Wed 04:24:33 PM 42.3410 -114.2660 311° West 441 507 42,900 279 Climbing FlightAware ADS-B
Wed 04:25:15 PM 42.3960 -114.3550 310° West 443 510 43,000 73 Climbing FlightAware ADS-B
Wed 04:25:55 PM 42.4500 -114.4410 310° West 443 510 43,000  Level FlightAware ADS-B
Wed 04:26:41 PM 42.5150 -114.5330 314° West 447 514 43,000  Level FlightAware ADS-B
Wed 04:27:21 PM 42.5750 -114.6100 317° Northwest 448 516 43,000  Level FlightAware ADS-B
Wed 04:28:05 PM 42.6410 -114.6950 317° Northwest 448 516 43,000  Level FlightAware ADS-B
Wed 04:28:45 PM 42.7000 -114.7710 317° Northwest 447 514 43,000  Level FlightAware ADS-B
Wed 04:29:27 PM 42.7650 -114.8550 317° Northwest 447 514 43,000  Level FlightAware ADS-B
Wed 04:30:44 PM 42.8710 -114.9930 316° Northwest 447 514 43,000  Level FlightAware ADS-B
Wed 04:32:16 PM 42.9950 -115.1540 317° Northwest 446 513 43,000  Level FlightAware ADS-B
Wed 04:32:57 PM 43.0570 -115.2350 316° Northwest 445 512 43,000  Level FlightAware ADS-B
Wed 04:33:45 PM 43.1480 -115.3550 316° Northwest 444 511 43,000  Level FlightAware ADS-B
Wed 04:34:25 PM 43.2070 -115.4330 316° Northwest 444 511 43,000  Level FlightAware ADS-B
Wed 04:35:09 PM 43.2730 -115.5190 317° Northwest 442 509 43,000  Level FlightAware ADS-B
Wed 04:35:51 PM 43.3350 -115.6010 316° Northwest 441 507 43,000  Level FlightAware ADS-B
Wed 04:36:29 PM 43.3890 -115.6740 316° Northwest 441 507 43,000  Level FlightAware ADS-B
Wed 04:37:10 PM 43.4500 -115.7540 316° Northwest 440 506 43,000  Level FlightAware ADS-B
Wed 04:37:50 PM 43.5090 -115.8330 316° Northwest 439 505 43,000  Level FlightAware ADS-B
Wed 04:38:30 PM 43.5660 -115.9100 316° Northwest 439 505 43,000  Level FlightAware ADS-B
Wed 04:39:10 PM 43.6240 -115.9880 316° Northwest 439 505 43,000  Level FlightAware ADS-B
Wed 04:39:54 PM 43.6880 -116.0740 316° Northwest 439 505 43,000  Level FlightAware ADS-B
Wed 04:40:36 PM 43.7490 -116.1570 316° Northwest 439 505 43,000  Level FlightAware ADS-B
Wed 04:41:18 PM 43.8090 -116.2380 316° Northwest 439 505 43,000  Level FlightAware ADS-B
Wed 04:41:58 PM 43.8680 -116.3180 316° Northwest 437 503 43,000  Level FlightAware ADS-B
Wed 04:42:34 PM 43.9190 -116.3890 315° West 436 502 43,000  Level FlightAware ADS-B
Wed 04:43:18 PM 43.9820 -116.4750 316° Northwest 438 504 43,000  Level FlightAware ADS-B
Wed 04:44:00 PM 44.0420 -116.5570 316° Northwest 439 505 43,000  Level FlightAware ADS-B
Wed 04:44:44 PM 44.1070 -116.6460 316° Northwest 438 504 43,000  Level FlightAware ADS-B
Wed 04:47:08 PM 44.2920 -116.9030 315° West 438 504 43,000  Level FlightAware ADS-B
Wed 04:47:54 PM 44.3780 -117.0230 315° West 439 505 43,000  Level FlightAware ADS-B
Wed 04:48:34 PM 44.4350 -117.1030 315° West 439 505 43,000  Level FlightAware ADS-B
Wed 04:49:16 PM 44.4960 -117.1900 315° West 439 505 43,000  Level FlightAware ADS-B
Wed 04:50:00 PM 44.5590 -117.2770 315° West 439 505 43,000  Level FlightAware ADS-B
Wed 04:50:40 PM 44.6160 -117.3590 314° West 439 505 43,000  Level FlightAware ADS-B
Wed 04:51:24 PM 44.6780 -117.4470 315° West 440 506 43,000  Level FlightAware ADS-B
Wed 04:52:06 PM 44.7380 -117.5320 315° West 440 506 43,000  Level FlightAware ADS-B
Wed 04:52:46 PM 44.7950 -117.6130 315° West 440 506 43,000  Level FlightAware ADS-B
Wed 04:53:22 PM 44.8470 -117.6880 314° West 439 505 43,000  Level FlightAware ADS-B
Wed 04:54:04 PM 44.9060 -117.7740 314° West 441 507 43,000  Level FlightAware ADS-B
Wed 04:54:46 PM 44.9660 -117.8600 315° West 444 511 43,000  Level FlightAware ADS-B
Wed 04:55:18 PM 45.0120 -117.9270 314° West 447 514 43,000  Level FlightAware ADS-B
Wed 04:56:04 PM 45.0790 -118.0230 315° West 451 519 43,000  Level FlightAware ADS-B
Wed 04:56:46 PM 45.1390 -118.1110 314° West 452 520 43,000  Level FlightAware ADS-B
Wed 04:57:26 PM 45.1980 -118.1960 315° West 452 520 43,000  Level FlightAware ADS-B
Wed 04:58:10 PM 45.2610 -118.2890 314° West 455 524 43,000  Level FlightAware ADS-B
Wed 04:58:50 PM 45.3210 -118.3760 314° West 454 522 43,000  Level FlightAware ADS-B
Wed 04:59:34 PM 45.3850 -118.4710 314° West 456 525 43,000  Level FlightAware ADS-B
Wed 04:59:54 PM 45.4130 -118.5120 314° West 456 525 43,000  Level FlightAware ADS-B
Wed 05:00:57 PM 45.4840 -118.6170 314° West 454 522 43,000  Level FlightAware ADS-B
Wed 05:02:17 PM 45.6000 -118.7900 314° West 452 520 43,000  Level FlightAware ADS-B
Wed 05:02:56 PM 45.6770 -118.9050 314° West 449 517 43,000  Level FlightAware ADS-B
Wed 05:03:34 PM 45.7300 -118.9910 311° West 447 514 43,000  Level FlightAware ADS-B
Wed 05:04:18 PM 45.7880 -119.0880 311° West 447 514 43,000  Level FlightAware ADS-B
Wed 05:04:56 PM 45.8390 -119.1740 310° West 447 514 43,000  Level FlightAware ADS-B
Wed 05:05:34 PM 45.8880 -119.2580 310° West 447 514 43,000  Level FlightAware ADS-B
Wed 05:06:16 PM 45.9440 -119.3530 310° West 447 514 43,000  Level FlightAware ADS-B
Wed 05:06:59 PM 46.0020 -119.4530 310° West 448 516 43,000  Level FlightAware ADS-B
Wed 05:07:39 PM 46.0570 -119.5460 310° West 449 517 43,000  Level FlightAware ADS-B
Wed 05:08:25 PM 46.1170 -119.6490 310° West 450 518 43,000  Level FlightAware ADS-B
Wed 05:09:07 PM 46.1740 -119.7470 310° West 452 520 43,000  Level FlightAware ADS-B
Wed 05:09:47 PM 46.2260 -119.8390 309° West 453 521 43,000 -79 Level FlightAware ADS-B
Wed 05:10:23 PM 46.2750 -119.9240 310° West 445 512 42,900 -1,083 Descending FlightAware ADS-B
Wed 05:10:59 PM 46.3210 -120.0030 310° West 444 511 41,700 -2,341 Descending FlightAware ADS-B
Wed 05:11:45 PM 46.3820 -120.1110 309° West 447 514 39,700 -2,591 Descending FlightAware ADS-B
Wed 05:12:27 PM 46.4370 -120.2060 310° West 444 511 37,900 -2,488 Descending FlightAware ADS-B
Wed 05:13:07 PM 46.4880 -120.2960 309° West 431 496 36,300 -2,372 Descending FlightAware ADS-B
Wed 05:13:53 PM 46.5470 -120.4000 310° West 437 503 34,500 -2,341 Descending FlightAware ADS-B
Wed 05:14:29 PM 46.5906 -120.4850 307° West 439 505 33,100 -2,455 Descending FlightAware ADS-B
Wed 05:14:59 PM 46.6262 -120.5600 305° West 445 512 31,800 -2,479 Descending FlightAware ADS-B
Wed 05:16:30 PM 46.7320 -120.7830 305° West 456 525 28,100 -2,471 Descending FlightAware ADS-B
Wed 05:17:15 PM 46.7860 -120.8950 305° West 434 499 26,200 -2,466 Descending FlightAware ADS-B
Wed 05:17:43 PM 46.8178 -120.9620 305° West 421 484 25,100 -2,301 Descending FlightAware ADS-B
Wed 05:18:28 PM 46.8659 -121.0650 304° West 408 470 23,400 -2,259 Descending FlightAware ADS-B
Wed 05:19:08 PM 46.9078 -121.1550 304° West 401 461 21,900 -2,197 Descending FlightAware ADS-B
Wed 05:19:39 PM 46.9411 -121.2260 305° West 410 472 20,800 -2,262 Descending FlightAware ADS-B
Wed 05:20:09 PM 46.9730 -121.2940 305° West 399 459 19,600 -2,190 Descending FlightAware ADS-B
Wed 05:20:42 PM 47.0051 -121.3630 304° West 370 426 18,500 -2,095 Descending FlightAware ADS-B
Wed 05:21:12 PM 47.0338 -121.4250 304° West 356 410 17,400 -2,066 Descending FlightAware ADS-B
Wed 05:21:43 PM 47.0613 -121.4840 304° West 341 392 16,400 -1,742 Descending FlightAware ADS-B
Wed 05:22:14 PM 47.0888 -121.5430 304° West 331 381 15,600 -1,082 Descending FlightAware ADS-B
Wed 05:22:44 PM 47.1141 -121.5980 304° West 321 369 15,300 -600 Descending FlightAware ADS-B
Wed 05:23:14 PM 47.1389 -121.6510 305° West 314 361 15,000 -787 Descending FlightAware ADS-B
Wed 05:23:45 PM 47.1634 -121.7050 304° West 321 369 14,500 -1,082 Descending FlightAware ADS-B
Wed 05:24:15 PM 47.1884 -121.7600 304° West 320 368 13,900 -1,200 Descending FlightAware ADS-B
Wed 05:24:45 PM 47.2126 -121.8130 304° West 311 358 13,300 -1,100 Descending FlightAware ADS-B
Wed 05:25:15 PM 47.2363 -121.8650 304° West 302 348 12,800 -1,000 Descending FlightAware ADS-B
Wed 05:25:45 PM 47.2597 -121.9170 304° West 300 345 12,300 -1,100 Descending FlightAware ADS-B
Wed 05:26:15 PM 47.2828 -121.9680 304° West 301 346 11,700 -1,071 Descending FlightAware ADS-B
Wed 05:26:41 PM 47.3020 -122.0100 304° West 299 344 11,300 -964 Descending FlightAware ADS-B
Wed 05:27:11 PM 47.3246 -122.0600 304° West 278 320 10,800 -1,000 Descending FlightAware ADS-B
Wed 05:27:41 PM 47.3458 -122.1070 304° West 268 308 10,300 -980 Descending FlightAware ADS-B
Wed 05:28:00 PM 47.3584 -122.1350 304° West 265 305 10,000 -800 Descending FlightAware ADS-B
Wed 05:28:11 PM 47.3661 -122.1530 302° West 269 310 9,900 -444 Descending FlightAware ADS-B
Wed 05:28:27 PM 47.3760 -122.1760 302° West 257 296 9,800  Descending FlightAware ADS-B
Wed 05:28:43 PM 47.3855 -122.1980 303° West 240 276 9,900 194 Climbing FlightAware ADS-B
Wed 05:28:58 PM 47.3945 -122.2190 302° West 236 272 9,900  Level FlightAware ADS-B
Wed 05:29:08 PM 47.4005 -122.2330 302° West 230 265 9,900  Level FlightAware ADS-B
Wed 05:29:23 PM 47.4086 -122.2520 302° West 225 259 9,900  Level FlightAware ADS-B
Wed 05:29:38 PM 47.4173 -122.2720 303° West 227 261 9,900 -194 Level FlightAware ADS-B
Wed 05:29:54 PM 47.4256 -122.2920 302° West 220 253 9,800 -774 Descending FlightAware ADS-B
Wed 05:30:09 PM 47.4336 -122.3110 302° West 211 243 9,500 -1,200 Descending FlightAware ADS-B
Wed 05:30:24 PM 47.4412 -122.3290 302° West 207 238 9,200 -1,385 Descending FlightAware ADS-B
Wed 05:30:35 PM 47.4470 -122.3430 301° West 213 245 8,900 -1,714 Descending FlightAware ADS-B
Wed 05:30:45 PM 47.4522 -122.3560 301° West 215 247 8,600 -2,143 Descending FlightAware ADS-B
Wed 05:30:49 PM 47.4543 -122.3610 302° West 216 249 8,400 -2,250 Descending FlightAware ADS-B
Wed 05:30:53 PM 47.4569 -122.3660 308° West 218 251 8,300 -2,000 Descending FlightAware ADS-B
Wed 05:31:07 PM 47.4658 -122.3810 311° West 217 250 7,800 -2,069 Descending FlightAware ADS-B
Wed 05:31:22 PM 47.4757 -122.3980 311° West 215 247 7,300 -2,129 Descending FlightAware ADS-B
Wed 05:31:38 PM 47.4858 -122.4150 311° West 214 246 6,700 -2,129 Descending FlightAware ADS-B
Wed 05:31:53 PM 47.4956 -122.4320 310° West 213 245 6,200 -1,655 Descending FlightAware ADS-B
Wed 05:32:07 PM 47.5048 -122.4480 310° West 210 242 5,900 -600 Descending FlightAware ADS-B
Wed 05:32:23 PM 47.5142 -122.4640 311° West 207 238 5,900  Level FlightAware ADS-B
Wed 05:32:38 PM 47.5240 -122.4810 310° West 207 238 5,900  Level FlightAware ADS-B
Wed 05:32:55 PM 47.5348 -122.4990 312° West 209 241 5,900  Level FlightAware ADS-B
Wed 05:33:03 PM 47.5396 -122.5080 308° West 209 241 5,900  Level FlightAware ADS-B
Wed 05:33:08 PM 47.5428 -122.5130 313° West 210 242 5,900  Level FlightAware ADS-B
Wed 05:33:11 PM 47.5451 -122.5160 319° Northwest 212 244 5,900  Level FlightAware ADS-B
Wed 05:33:15 PM 47.5481 -122.5180 336° Northwest 213 245 5,900  Level FlightAware ADS-B
Wed 05:33:19 PM 47.5518 -122.5210 331° Northwest 214 246 5,900  Level FlightAware ADS-B
Wed 05:33:37 PM 47.5692 -122.5310 339° North 221 254 5,900 -529 Level FlightAware ADS-B
Wed 05:33:53 PM 47.5838 -122.5390 340° North 217 250 5,600 -1,200 Descending FlightAware ADS-B
Wed 05:34:12 PM 47.6016 -122.5480 341° North 213 245 5,200 -1,371 Descending FlightAware ADS-B
Wed 05:34:28 PM 47.6152 -122.5550 341° North 203 234 4,800 -1,455 Descending FlightAware ADS-B
Wed 05:34:45 PM 47.6307 -122.5640 339° North 207 238 4,400 -1,895 Descending FlightAware ADS-B
Wed 05:35:06 PM 47.6495 -122.5740 340° North 209 241 3,600 -2,276 Descending FlightAware ADS-B
Wed 05:35:14 PM 47.6571 -122.5770 345° North 209 241 3,300 -2,000 Descending FlightAware ADS-B
Wed 05:35:18 PM 47.6608 -122.5770 360° North 210 242 3,200 -1,600 Descending FlightAware ADS-B
Wed 05:35:29 PM 47.6710 -122.5710 22° Northeast 209 241 2,900 -2,000 Descending FlightAware ADS-B
Wed 05:35:36 PM 47.6757 -122.5640 45° Northeast 208 239 2,600 -1,875 Descending FlightAware ADS-B
Wed 05:35:45 PM 47.6802 -122.5550 53° Northeast 204 235 2,400 -1,111 Descending FlightAware ADS-B
Wed 05:36:03 PM 47.6895 -122.5340 57° Northeast 202 232 2,100 -720 Descending FlightAware ADS-B
Wed 05:36:10 PM 47.6933 -122.5250 58° Northeast 199 229 2,100  Level FlightAware ADS-B
Wed 05:36:13 PM 47.6947 -122.5210 63° Northeast 197 227 2,100  Level FlightAware ADS-B
Wed 05:36:17 PM 47.6960 -122.5170 64° Northeast 196 226 2,100  Level FlightAware ADS-B
Wed 05:36:23 PM 47.6968 -122.5100 80° East 193 222 2,100  Level FlightAware ADS-B
Wed 05:36:26 PM 47.6968 -122.5050 90° East 191 220 2,100  Level FlightAware ADS-B
Wed 05:36:45 PM 47.6946 -122.4790 97° East 200 230 2,100  Level FlightAware ADS-B
Wed 05:37:03 PM 47.6857 -122.4580 122° Southeast 213 245 2,100  Level FlightAware ADS-B
Wed 05:37:27 PM 47.6714 -122.4330 130° Southeast 213 245 2,100  Level FlightAware ADS-B
Wed 05:37:47 PM 47.6601 -122.4180 138° Southeast 213 245 2,100  Level FlightAware ADS-B
Wed 05:37:57 PM 47.6539 -122.4100 139° Southeast 171 197 2,100  Level FlightAware ADS-B
Wed 05:38:08 PM 47.6469 -122.4030 146° Southeast 163 188 2,100  Level FlightAware ADS-B
Wed 05:38:18 PM 47.6407 -122.3970 147° Southeast 151 174 2,100  Level FlightAware ADS-B
Wed 05:38:33 PM 47.6315 -122.3890 150° Southeast 153 176 2,100 -563 Level FlightAware ADS-B
Wed 05:38:50 PM 47.6219 -122.3800 148° Southeast 140 161 1,800 -837 Descending FlightAware ADS-B
Wed 05:39:16 PM 47.6082 -122.3680 149° Southeast 136 157 1,500 -706 Descending FlightAware ADS-B
Wed 05:39:58 PM 47.5876 -122.3510 151° Southeast 125 144 1,000 -639 Descending FlightAware ADS-B
Wed 05:41:18 PM 47.5489 -122.3186 151° Southeast 122 140 200 -383 Descending Seattle Center
Wed 05:42:19 PM 47.5217 -122.2958 151° Southeast 122 140 100 -98 Descending Seattle Center

Login

Don't have an account? Register now (free) for customized features, flight alerts, and more!